No.10 Hasshomaru — JD2992 — position and weather

sailwx.info

Track history (hours):
 
Tides and Currents Weather Stations Pressure Air Temp Water Temp Dewpoint Dewpoint Depression Visibility Wind Speed Wind Dir Waves Ship Positions

No.10 Hasshomaru

Last reported at 2016-May-03 07:17 UTC. Time now 2016-May-03 10:34 UTC.
Position N 33°52' E 130°26'.

Length 105 m; draft 5.3 m.

Type: Tanker. MMSI: 431001112.

Date/timePositionNaut miles runAvg speedWind from/ knotsBaromVisibWave heightAir tempDewpointWater temp
2016-May-03 07:17N 33°52' E 130°26'1114.9
2016-May-03 06:33N 33°45' E 130°17'10 9.7
2016-May-03 05:32N 33°36' E 130°23'0 0.1
2016-May-03 04:33N 33°36' E 130°23'0 0.0
2016-May-03 03:33N 33°36' E 130°23'0 0.0
2016-May-03 02:33N 33°36' E 130°23'0 0.0
2016-May-03 01:32N 33°36' E 130°23'3 3.1
2016-May-03 00:33N 33°38' E 130°20'0 0.4
2016-May-02 23:33N 33°38' E 130°20'0 0.1
2016-May-02 22:33N 33°38' E 130°20'0 0.0
2016-May-02 21:32N 33°38' E 130°20'6 6.6
2016-May-02 20:33N 33°44' E 130°17'1312.5
2016-May-02 19:32N 33°56' E 130°23'  
2016-Apr-26 08:33N 34°34' E 134°49'1111.2
2016-Apr-26 07:33N 34°37' E 135°02'5 5.2
2016-Apr-26 06:30N 34°39' E 135°08'0 0.0
2016-Apr-26 05:24N 34°39' E 135°08'0 0.0
2016-Apr-26 04:30N 34°39' E 135°08'0 0.0
2016-Apr-26 03:18N 34°39' E 135°08'0 0.1
2016-Apr-26 02:27N 34°38' E 135°08'1 1.4
2016-Apr-26 01:29N 34°37' E 135°08'0 0.0
2016-Apr-26 00:29N 34°37' E 135°08'0 0.0
2016-Apr-25 23:29N 34°37' E 135°08'0 0.0
2016-Apr-25 22:29N 34°37' E 135°08'0 0.1
2016-Apr-25 21:29N 34°37' E 135°08'0 0.0
2016-Apr-25 20:23N 34°37' E 135°08'0 0.0
2016-Apr-25 19:29N 34°37' E 135°08'7 7.4
2016-Apr-25 18:33N 34°37' E 134°60'  
Track history (hours):
 
Tides and Currents Weather Stations Pressure Air Temp Water Temp Dewpoint Dewpoint Depression Visibility Wind Speed Wind Dir Waves Ship Positions

No.10 Hasshomaru

Last reported at 2016-May-03 07:17 UTC. Time now 2016-May-03 10:34 UTC.
Position N 33°52' E 130°26'.

Length 105 m; draft 5.3 m.

Type: Tanker. MMSI: 431001112.

Date/timePositionNaut miles runAvg speedWind from/ knotsBaromVisibWave heightAir tempDewpointWater temp
2016-May-03 07:17N 33°52' E 130°26'1114.9
2016-May-03 06:33N 33°45' E 130°17'10 9.7
2016-May-03 05:32N 33°36' E 130°23'0 0.1
2016-May-03 04:33N 33°36' E 130°23'0 0.0
2016-May-03 03:33N 33°36' E 130°23'0 0.0
2016-May-03 02:33N 33°36' E 130°23'0 0.0
2016-May-03 01:32N 33°36' E 130°23'3 3.1
2016-May-03 00:33N 33°38' E 130°20'0 0.4
2016-May-02 23:33N 33°38' E 130°20'0 0.1
2016-May-02 22:33N 33°38' E 130°20'0 0.0
2016-May-02 21:32N 33°38' E 130°20'6 6.6
2016-May-02 20:33N 33°44' E 130°17'1312.5
2016-May-02 19:32N 33°56' E 130°23'  
2016-Apr-26 08:33N 34°34' E 134°49'1111.2
2016-Apr-26 07:33N 34°37' E 135°02'5 5.2
2016-Apr-26 06:30N 34°39' E 135°08'0 0.0
2016-Apr-26 05:24N 34°39' E 135°08'0 0.0
2016-Apr-26 04:30N 34°39' E 135°08'0 0.0
2016-Apr-26 03:18N 34°39' E 135°08'0 0.1
2016-Apr-26 02:27N 34°38' E 135°08'1 1.4
2016-Apr-26 01:29N 34°37' E 135°08'0 0.0
2016-Apr-26 00:29N 34°37' E 135°08'0 0.0
2016-Apr-25 23:29N 34°37' E 135°08'0 0.0
2016-Apr-25 22:29N 34°37' E 135°08'0 0.1
2016-Apr-25 21:29N 34°37' E 135°08'0 0.0
2016-Apr-25 20:23N 34°37' E 135°08'0 0.0
2016-Apr-25 19:29N 34°37' E 135°08'7 7.4
2016-Apr-25 18:33N 34°37' E 134°60'  

Dump ship's entire track history